sensor_id;sensor_type;location;lat;lon;timestamp;temperature;humidity
19924;DHT22;10124;53.068;18.224;2022-08-25T13:53:39;35.20;1.00
19924;DHT22;10124;53.068;18.224;2022-08-25T13:59:25;35.40;1.00
19924;DHT22;10124;53.068;18.224;2022-08-25T14:02:08;35.30;1.00
19924;DHT22;10124;53.068;18.224;2022-08-25T14:04:49;35.10;1.00
19924;DHT22;10124;53.068;18.224;2022-08-25T14:09:51;35.20;1.00
19924;DHT22;10124;53.068;18.224;2022-08-25T14:15:00;34.20;1.00
19924;DHT22;10124;53.068;18.224;2022-08-25T14:17:32;34.50;1.00
19924;DHT22;10124;53.068;18.224;2022-08-25T14:20:19;33.70;1.00
19924;DHT22;10124;53.068;18.224;2022-08-25T14:22:56;33.30;1.00
19924;DHT22;10124;53.068;18.224;2022-08-25T14:25:27;33.30;1.00
19924;DHT22;10124;53.068;18.224;2022-08-25T14:27:59;33.40;1.00
19924;DHT22;10124;53.068;18.224;2022-08-25T14:31:05;33.10;1.00
19924;DHT22;10124;53.068;18.224;2022-08-25T14:33:54;33.30;1.00
19924;DHT22;10124;53.068;18.224;2022-08-25T14:36:24;33.20;1.00
19924;DHT22;10124;53.068;18.224;2022-08-25T14:38:55;33.20;1.00
19924;DHT22;10124;53.068;18.224;2022-08-25T14:41:24;33.00;1.00
19924;DHT22;10124;53.068;18.224;2022-08-25T14:43:53;33.20;1.00
19924;DHT22;10124;53.068;18.224;2022-08-25T14:46:26;33.10;1.00
19924;DHT22;10124;53.068;18.224;2022-08-25T14:48:58;32.60;1.00
19924;DHT22;10124;53.068;18.224;2022-08-25T14:51:27;32.20;1.00
19924;DHT22;10124;53.068;18.224;2022-08-25T14:53:59;31.80;1.00
19924;DHT22;10124;53.068;18.224;2022-08-25T14:56:29;31.20;1.00
19924;DHT22;10124;53.068;18.224;2022-08-25T14:58:58;30.90;1.00
19924;DHT22;10124;53.068;18.224;2022-08-25T15:01:27;30.70;1.00
19924;DHT22;10124;53.068;18.224;2022-08-25T15:04:05;30.50;1.00
19924;DHT22;10124;53.068;18.224;2022-08-25T15:06:35;30.20;1.00
19924;DHT22;10124;53.068;18.224;2022-08-25T15:09:05;29.80;1.00
19924;DHT22;10124;53.068;18.224;2022-08-25T15:11:41;29.70;1.00
19924;DHT22;10124;53.068;18.224;2022-08-25T15:14:12;29.60;1.00
19924;DHT22;10124;53.068;18.224;2022-08-25T15:17:01;29.50;1.00
19924;DHT22;10124;53.068;18.224;2022-08-25T15:19:29;29.20;1.00
19924;DHT22;10124;53.068;18.224;2022-08-25T15:21:57;29.00;1.00
19924;DHT22;10124;53.068;18.224;2022-08-25T15:24:27;28.90;1.00
19924;DHT22;10124;53.068;18.224;2022-08-25T15:26:57;29.10;1.00
19924;DHT22;10124;53.068;18.224;2022-08-25T15:29:28;28.90;1.00
19924;DHT22;10124;53.068;18.224;2022-08-25T15:31:58;28.90;1.00
19924;DHT22;10124;53.068;18.224;2022-08-25T15:34:27;28.90;1.00
19924;DHT22;10124;53.068;18.224;2022-08-25T15:36:56;28.90;1.00
19924;DHT22;10124;53.068;18.224;2022-08-25T15:39:25;28.80;1.00
19924;DHT22;10124;53.068;18.224;2022-08-25T15:41:54;28.60;1.00
19924;DHT22;10124;53.068;18.224;2022-08-25T15:44:23;28.40;1.00
19924;DHT22;10124;53.068;18.224;2022-08-25T15:46:58;28.40;1.00
19924;DHT22;10124;53.068;18.224;2022-08-25T15:49:43;28.30;1.00
19924;DHT22;10124;53.068;18.224;2022-08-25T15:52:11;28.20;1.00
19924;DHT22;10124;53.068;18.224;2022-08-25T15:54:39;28.20;1.00
19924;DHT22;10124;53.068;18.224;2022-08-25T15:57:08;28.20;1.00
19924;DHT22;10124;53.068;18.224;2022-08-25T15:59:52;28.10;1.00
19924;DHT22;10124;53.068;18.224;2022-08-25T16:02:20;28.20;1.00
19924;DHT22;10124;53.068;18.224;2022-08-25T16:04:47;28.10;1.00
19924;DHT22;10124;53.068;18.224;2022-08-25T16:07:17;28.90;1.00
19924;DHT22;10124;53.068;18.224;2022-08-25T16:09:45;29.20;1.00
19924;DHT22;10124;53.068;18.224;2022-08-25T16:12:13;27.80;1.00
19924;DHT22;10124;53.068;18.224;2022-08-25T16:14:52;27.80;1.00
19924;DHT22;10124;53.068;18.224;2022-08-25T16:17:21;27.80;1.00
19924;DHT22;10124;53.068;18.224;2022-08-25T16:19:49;27.80;1.00
19924;DHT22;10124;53.068;18.224;2022-08-25T16:22:17;27.70;1.00
19924;DHT22;10124;53.068;18.224;2022-08-25T16:24:45;27.70;1.00
19924;DHT22;10124;53.068;18.224;2022-08-25T16:27:14;27.70;1.00
19924;DHT22;10124;53.068;18.224;2022-08-25T16:29:43;27.50;1.00
19924;DHT22;10124;53.068;18.224;2022-08-25T16:32:12;27.50;1.00
19924;DHT22;10124;53.068;18.224;2022-08-25T16:34:44;27.60;1.00
19924;DHT22;10124;53.068;18.224;2022-08-25T16:37:13;27.60;1.00
19924;DHT22;10124;53.068;18.224;2022-08-25T16:39:41;27.50;1.00
19924;DHT22;10124;53.068;18.224;2022-08-25T16:42:13;27.40;1.00
19924;DHT22;10124;53.068;18.224;2022-08-25T16:44:40;27.20;1.00
19924;DHT22;10124;53.068;18.224;2022-08-25T16:47:08;27.20;1.00
19924;DHT22;10124;53.068;18.224;2022-08-25T16:49:40;27.20;1.00
19924;DHT22;10124;53.068;18.224;2022-08-25T16:52:09;27.20;1.00
19924;DHT22;10124;53.068;18.224;2022-08-25T16:54:57;27.10;1.00
19924;DHT22;10124;53.068;18.224;2022-08-25T16:57:51;27.10;1.00
19924;DHT22;10124;53.068;18.224;2022-08-25T17:00:25;27.00;1.00
19924;DHT22;10124;53.068;18.224;2022-08-25T17:02:58;27.10;1.00
19924;DHT22;10124;53.068;18.224;2022-08-25T17:05:28;26.90;1.00
19924;DHT22;10124;53.068;18.224;2022-08-25T17:07:58;28.50;1.00
19924;DHT22;10124;53.068;18.224;2022-08-25T17:10:45;26.70;1.00
19924;DHT22;10124;53.068;18.224;2022-08-25T17:13:13;26.70;1.00
19924;DHT22;10124;53.068;18.224;2022-08-25T17:15:42;26.70;1.00
19924;DHT22;10124;53.068;18.224;2022-08-25T17:18:11;26.60;1.00
19924;DHT22;10124;53.068;18.224;2022-08-25T17:20:43;26.50;1.00
19924;DHT22;10124;53.068;18.224;2022-08-25T17:23:11;26.40;1.00
19924;DHT22;10124;53.068;18.224;2022-08-25T17:25:41;26.40;1.00
19924;DHT22;10124;53.068;18.224;2022-08-25T17:28:10;26.30;1.00
19924;DHT22;10124;53.068;18.224;2022-08-25T17:30:39;26.20;1.00
19924;DHT22;10124;53.068;18.224;2022-08-25T17:33:10;26.00;1.00
19924;DHT22;10124;53.068;18.224;2022-08-25T17:35:45;26.10;1.00
19924;DHT22;10124;53.068;18.224;2022-08-25T17:38:16;25.90;1.00
19924;DHT22;10124;53.068;18.224;2022-08-25T17:40:46;25.80;1.00
19924;DHT22;10124;53.068;18.224;2022-08-25T17:43:14;25.70;1.00
19924;DHT22;10124;53.068;18.224;2022-08-25T17:45:46;25.70;1.00
19924;DHT22;10124;53.068;18.224;2022-08-25T17:48:14;25.60;1.00
19924;DHT22;10124;53.068;18.224;2022-08-25T17:50:44;25.50;1.00
19924;DHT22;10124;53.068;18.224;2022-08-25T17:53:13;25.40;1.00
19924;DHT22;10124;53.068;18.224;2022-08-25T17:55:43;25.30;1.00
19924;DHT22;10124;53.068;18.224;2022-08-25T17:58:14;25.30;1.00
19924;DHT22;10124;53.068;18.224;2022-08-25T18:00:44;25.20;1.00
19924;DHT22;10124;53.068;18.224;2022-08-25T18:03:12;25.10;1.00
19924;DHT22;10124;53.068;18.224;2022-08-25T18:05:42;25.10;1.00
19924;DHT22;10124;53.068;18.224;2022-08-25T18:08:11;25.00;1.00
19924;DHT22;10124;53.068;18.224;2022-08-25T18:10:41;25.00;1.00
19924;DHT22;10124;53.068;18.224;2022-08-25T18:13:09;24.70;1.00
19924;DHT22;10124;53.068;18.224;2022-08-25T18:15:41;24.80;1.00
19924;DHT22;10124;53.068;18.224;2022-08-25T18:18:12;25.10;1.00
19924;DHT22;10124;53.068;18.224;2022-08-25T18:20:45;24.60;1.00
19924;DHT22;10124;53.068;18.224;2022-08-25T18:23:13;24.50;1.00
19924;DHT22;10124;53.068;18.224;2022-08-25T18:25:42;24.70;1.00
19924;DHT22;10124;53.068;18.224;2022-08-25T18:28:11;24.50;1.00
19924;DHT22;10124;53.068;18.224;2022-08-25T18:30:38;24.40;1.00
19924;DHT22;10124;53.068;18.224;2022-08-25T18:33:07;24.40;1.00
19924;DHT22;10124;53.068;18.224;2022-08-25T18:35:35;24.30;1.00
19924;DHT22;10124;53.068;18.224;2022-08-25T18:38:05;24.30;1.00
19924;DHT22;10124;53.068;18.224;2022-08-25T18:41:00;24.20;1.00
19924;DHT22;10124;53.068;18.224;2022-08-25T18:43:28;24.10;1.00
19924;DHT22;10124;53.068;18.224;2022-08-25T18:46:02;24.00;1.00
19924;DHT22;10124;53.068;18.224;2022-08-25T18:48:36;24.00;1.00
19924;DHT22;10124;53.068;18.224;2022-08-25T18:51:05;23.90;1.00
19924;DHT22;10124;53.068;18.224;2022-08-25T18:53:37;23.90;1.00
19924;DHT22;10124;53.068;18.224;2022-08-25T18:56:17;23.90;1.00
19924;DHT22;10124;53.068;18.224;2022-08-25T18:58:46;23.90;1.00
19924;DHT22;10124;53.068;18.224;2022-08-25T19:01:15;23.90;1.00
19924;DHT22;10124;53.068;18.224;2022-08-25T19:03:45;23.80;1.00
19924;DHT22;10124;53.068;18.224;2022-08-25T19:06:14;23.70;1.00
19924;DHT22;10124;53.068;18.224;2022-08-25T19:08:42;23.60;1.00
19924;DHT22;10124;53.068;18.224;2022-08-25T19:11:11;23.70;1.00
19924;DHT22;10124;53.068;18.224;2022-08-25T19:13:39;23.60;1.00
19924;DHT22;10124;53.068;18.224;2022-08-25T19:16:15;23.60;1.00
19924;DHT22;10124;53.068;18.224;2022-08-25T19:18:47;23.50;1.00
19924;DHT22;10124;53.068;18.224;2022-08-25T19:21:18;23.50;1.00
19924;DHT22;10124;53.068;18.224;2022-08-25T19:23:50;23.50;1.00
19924;DHT22;10124;53.068;18.224;2022-08-25T19:26:19;23.90;1.00
19924;DHT22;10124;53.068;18.224;2022-08-25T19:28:48;23.40;1.00
19924;DHT22;10124;53.068;18.224;2022-08-25T19:31:19;23.30;28.00
19924;DHT22;10124;53.068;18.224;2022-08-25T19:33:48;23.20;41.60
19924;DHT22;10124;53.068;18.224;2022-08-25T19:36:19;23.20;50.90
19924;DHT22;10124;53.068;18.224;2022-08-25T19:38:50;23.10;71.90
19924;DHT22;10124;53.068;18.224;2022-08-25T19:41:19;23.10;99.90
19924;DHT22;10124;53.068;18.224;2022-08-25T19:43:48;23.00;96.40
19924;DHT22;10124;53.068;18.224;2022-08-25T19:46:26;23.00;93.40
19924;DHT22;10124;53.068;18.224;2022-08-25T19:49:01;22.90;99.90
19924;DHT22;10124;53.068;18.224;2022-08-25T19:51:36;23.10;99.90
19924;DHT22;10124;53.068;18.224;2022-08-25T19:54:06;22.90;99.90
19924;DHT22;10124;53.068;18.224;2022-08-25T19:56:37;23.00;99.90
19924;DHT22;10124;53.068;18.224;2022-08-25T19:59:22;22.90;99.90
19924;DHT22;10124;53.068;18.224;2022-08-25T20:01:53;22.80;99.90
19924;DHT22;10124;53.068;18.224;2022-08-25T20:04:21;24.60;99.90
19924;DHT22;10124;53.068;18.224;2022-08-25T20:06:51;22.20;99.90
19924;DHT22;10124;53.068;18.224;2022-08-25T20:09:22;22.60;99.90
19924;DHT22;10124;53.068;18.224;2022-08-25T20:12:09;22.50;99.90
19924;DHT22;10124;53.068;18.224;2022-08-25T20:14:37;22.50;99.90
19924;DHT22;10124;53.068;18.224;2022-08-25T20:17:05;22.30;1.00
19924;DHT22;10124;53.068;18.224;2022-08-25T20:19:55;22.00;1.00
19924;DHT22;10124;53.068;18.224;2022-08-25T20:22:25;22.30;1.00
19924;DHT22;10124;53.068;18.224;2022-08-25T20:24:58;24.20;1.00
19924;DHT22;10124;53.068;18.224;2022-08-25T20:27:32;22.30;1.00
19924;DHT22;10124;53.068;18.224;2022-08-25T20:30:03;22.30;1.00
19924;DHT22;10124;53.068;18.224;2022-08-25T20:32:32;22.10;1.00
19924;DHT22;10124;53.068;18.224;2022-08-25T20:35:07;22.10;1.00
19924;DHT22;10124;53.068;18.224;2022-08-25T20:37:40;22.10;99.90
19924;DHT22;10124;53.068;18.224;2022-08-25T20:40:13;22.30;1.00
19924;DHT22;10124;53.068;18.224;2022-08-25T20:42:41;21.80;1.00
19924;DHT22;10124;53.068;18.224;2022-08-25T20:45:12;22.00;1.00
19924;DHT22;10124;53.068;18.224;2022-08-25T20:47:42;22.00;99.90
19924;DHT22;10124;53.068;18.224;2022-08-25T20:50:13;21.90;47.40
19924;DHT22;10124;53.068;18.224;2022-08-25T20:52:42;22.60;99.90
19924;DHT22;10124;53.068;18.224;2022-08-25T20:55:10;21.80;1.00
19924;DHT22;10124;53.068;18.224;2022-08-25T20:57:39;21.70;1.00
19924;DHT22;10124;53.068;18.224;2022-08-25T21:00:09;21.20;1.00
19924;DHT22;10124;53.068;18.224;2022-08-25T21:02:37;22.00;1.00
19924;DHT22;10124;53.068;18.224;2022-08-25T21:05:06;21.70;99.90
19924;DHT22;10124;53.068;18.224;2022-08-25T21:07:36;21.60;99.90
19924;DHT22;10124;53.068;18.224;2022-08-25T21:10:06;21.60;99.90
19924;DHT22;10124;53.068;18.224;2022-08-25T21:12:38;21.80;1.00
19924;DHT22;10124;53.068;18.224;2022-08-25T21:15:09;21.50;1.00
19924;DHT22;10124;53.068;18.224;2022-08-25T21:17:37;21.50;1.00
19924;DHT22;10124;53.068;18.224;2022-08-25T21:20:07;21.60;1.00
19924;DHT22;10124;53.068;18.224;2022-08-25T21:22:36;21.90;1.00
19924;DHT22;10124;53.068;18.224;2022-08-25T21:25:05;21.30;1.00
19924;DHT22;10124;53.068;18.224;2022-08-25T21:27:33;21.30;1.00
19924;DHT22;10124;53.068;18.224;2022-08-25T21:30:01;21.30;1.00
19924;DHT22;10124;53.068;18.224;2022-08-25T21:32:28;21.60;1.00
19924;DHT22;10124;53.068;18.224;2022-08-25T21:34:56;21.20;1.00
19924;DHT22;10124;53.068;18.224;2022-08-25T21:37:25;20.60;1.00
19924;DHT22;10124;53.068;18.224;2022-08-25T21:39:52;21.10;1.00
19924;DHT22;10124;53.068;18.224;2022-08-25T21:42:22;21.60;1.00
19924;DHT22;10124;53.068;18.224;2022-08-25T21:44:51;21.10;1.00
19924;DHT22;10124;53.068;18.224;2022-08-25T21:47:20;21.00;1.00
19924;DHT22;10124;53.068;18.224;2022-08-25T21:49:50;21.00;1.00
19924;DHT22;10124;53.068;18.224;2022-08-25T21:52:17;21.00;1.00
19924;DHT22;10124;53.068;18.224;2022-08-25T21:54:45;20.20;1.00
19924;DHT22;10124;53.068;18.224;2022-08-25T21:57:13;20.90;1.00
19924;DHT22;10124;53.068;18.224;2022-08-25T22:02:12;20.80;1.00
19924;DHT22;10124;53.068;18.224;2022-08-25T22:04:44;20.80;1.00
19924;DHT22;10124;53.068;18.224;2022-08-25T22:07:14;20.70;1.00
19924;DHT22;10124;53.068;18.224;2022-08-25T22:09:43;20.70;1.00
19924;DHT22;10124;53.068;18.224;2022-08-25T22:12:20;20.70;1.00
19924;DHT22;10124;53.068;18.224;2022-08-25T22:14:48;20.00;1.00
19924;DHT22;10124;53.068;18.224;2022-08-25T22:17:17;20.50;1.00
19924;DHT22;10124;53.068;18.224;2022-08-25T22:19:50;20.50;1.00
19924;DHT22;10124;53.068;18.224;2022-08-25T22:22:20;20.50;1.00
19924;DHT22;10124;53.068;18.224;2022-08-25T22:24:48;20.50;1.00
19924;DHT22;10124;53.068;18.224;2022-08-25T22:27:16;20.40;1.00
19924;DHT22;10124;53.068;18.224;2022-08-25T22:29:45;20.40;1.00
19924;DHT22;10124;53.068;18.224;2022-08-25T22:32:14;20.30;1.00
19924;DHT22;10124;53.068;18.224;2022-08-25T22:34:42;20.40;1.00
19924;DHT22;10124;53.068;18.224;2022-08-25T22:37:10;20.50;1.00
19924;DHT22;10124;53.068;18.224;2022-08-25T22:39:43;20.30;1.00
19924;DHT22;10124;53.068;18.224;2022-08-25T22:42:11;20.30;1.00
19924;DHT22;10124;53.068;18.224;2022-08-25T22:44:40;20.20;1.00
19924;DHT22;10124;53.068;18.224;2022-08-25T22:47:08;20.20;1.00
19924;DHT22;10124;53.068;18.224;2022-08-25T22:49:38;20.20;1.00
19924;DHT22;10124;53.068;18.224;2022-08-25T22:52:08;20.10;1.00
19924;DHT22;10124;53.068;18.224;2022-08-25T22:54:40;19.50;1.00
19924;DHT22;10124;53.068;18.224;2022-08-25T22:57:09;20.00;1.00
19924;DHT22;10124;53.068;18.224;2022-08-25T22:59:37;19.90;1.00
19924;DHT22;10124;53.068;18.224;2022-08-25T23:02:04;19.90;1.00
19924;DHT22;10124;53.068;18.224;2022-08-25T23:04:32;19.20;1.00
19924;DHT22;10124;53.068;18.224;2022-08-25T23:07:00;19.80;1.00
19924;DHT22;10124;53.068;18.224;2022-08-25T23:09:27;19.80;1.00
19924;DHT22;10124;53.068;18.224;2022-08-25T23:11:55;19.80;1.00
19924;DHT22;10124;53.068;18.224;2022-08-25T23:14:24;19.80;1.00
19924;DHT22;10124;53.068;18.224;2022-08-25T23:16:53;19.80;1.00
19924;DHT22;10124;53.068;18.224;2022-08-25T23:19:22;19.70;1.00
19924;DHT22;10124;53.068;18.224;2022-08-25T23:21:54;19.70;1.00
19924;DHT22;10124;53.068;18.224;2022-08-25T23:24:46;19.60;1.00
19924;DHT22;10124;53.068;18.224;2022-08-25T23:27:17;19.70;1.00
19924;DHT22;10124;53.068;18.224;2022-08-25T23:29:47;19.70;1.00
19924;DHT22;10124;53.068;18.224;2022-08-25T23:32:16;19.70;1.00
19924;DHT22;10124;53.068;18.224;2022-08-25T23:34:45;19.70;1.00
19924;DHT22;10124;53.068;18.224;2022-08-25T23:37:14;19.70;1.00
19924;DHT22;10124;53.068;18.224;2022-08-25T23:39:45;19.60;1.00
19924;DHT22;10124;53.068;18.224;2022-08-25T23:42:17;19.60;1.00
19924;DHT22;10124;53.068;18.224;2022-08-25T23:44:46;19.70;1.00
19924;DHT22;10124;53.068;18.224;2022-08-25T23:47:15;19.60;1.00
19924;DHT22;10124;53.068;18.224;2022-08-25T23:49:42;19.70;1.00
19924;DHT22;10124;53.068;18.224;2022-08-25T23:52:10;19.60;1.00
19924;DHT22;10124;53.068;18.224;2022-08-25T23:54:38;19.60;1.00
19924;DHT22;10124;53.068;18.224;2022-08-25T23:57:05;19.70;1.00
19924;DHT22;10124;53.068;18.224;2022-08-25T23:59:34;19.80;1.00
